O'Leary, Canada
Current Conditions -  °F | °C
As of 1:00 AM on Monday 22 Dec 2014 (Local Time) from CYQM Reporting Station
Snow Showers Snow Showers  
Wind Chill: 25°   Ceiling: 1600
Heat Index: 25°   Visibility: 15mi
Dew Point: 23°   Wind: 3mph
Humidity: 93%   Direction: 300°WNW
Pressure: 30.41"   Gusts: NA
Location:  46.7°N, 64.22°W
Report Text: CYQM 220500Z 30003KT 15SM -SHSN OVC016 M04/M05 A3041 RMK SC8 SLP303
Loading
Personal Weather Stations






























Interactive Weather Map New forecast layout! Learn more

10-Day Weather Forecast

Advertisements
Track Severe Weather on mobile